sensor_id;sensor_type;location;lat;lon;timestamp;temperature;humidity
47791;DHT22;33547;49.044;1.156;2023-01-29T00:00:38;-0.50;99.90
47791;DHT22;33547;49.044;1.156;2023-01-29T00:03:03;-0.50;99.90
47791;DHT22;33547;49.044;1.156;2023-01-29T00:05:30;-0.50;99.90
47791;DHT22;33547;49.044;1.156;2023-01-29T00:07:56;-0.50;99.90
47791;DHT22;33547;49.044;1.156;2023-01-29T00:10:23;-0.50;99.90
47791;DHT22;33547;49.044;1.156;2023-01-29T00:12:49;-0.60;99.90
47791;DHT22;33547;49.044;1.156;2023-01-29T00:15:16;-0.60;99.90
47791;DHT22;33547;49.044;1.156;2023-01-29T00:17:42;-0.60;99.90
47791;DHT22;33547;49.044;1.156;2023-01-29T00:20:08;-0.60;99.90
47791;DHT22;33547;49.044;1.156;2023-01-29T00:22:34;-0.60;99.90
47791;DHT22;33547;49.044;1.156;2023-01-29T00:24:59;-0.50;99.90
47791;DHT22;33547;49.044;1.156;2023-01-29T00:27:25;-0.60;99.90
47791;DHT22;33547;49.044;1.156;2023-01-29T00:29:51;-0.60;99.90
47791;DHT22;33547;49.044;1.156;2023-01-29T00:32:33;-0.60;99.90
47791;DHT22;33547;49.044;1.156;2023-01-29T00:34:59;-0.60;99.90
47791;DHT22;33547;49.044;1.156;2023-01-29T00:37:24;-0.60;99.90
47791;DHT22;33547;49.044;1.156;2023-01-29T00:39:50;-0.70;99.90
47791;DHT22;33547;49.044;1.156;2023-01-29T00:42:15;-0.90;99.90
47791;DHT22;33547;49.044;1.156;2023-01-29T00:44:59;-0.80;99.90
47791;DHT22;33547;49.044;1.156;2023-01-29T00:47:25;-0.80;99.90
47791;DHT22;33547;49.044;1.156;2023-01-29T00:50:09;-0.70;99.90
47791;DHT22;33547;49.044;1.156;2023-01-29T00:52:35;-0.70;99.90
47791;DHT22;33547;49.044;1.156;2023-01-29T00:55:02;-0.80;99.90
47791;DHT22;33547;49.044;1.156;2023-01-29T00:57:30;-0.80;99.90
47791;DHT22;33547;49.044;1.156;2023-01-29T00:59:56;-0.80;99.90
47791;DHT22;33547;49.044;1.156;2023-01-29T01:02:22;-0.90;99.90
47791;DHT22;33547;49.044;1.156;2023-01-29T01:05:08;-0.90;99.90
47791;DHT22;33547;49.044;1.156;2023-01-29T01:07:51;-0.90;99.90
47791;DHT22;33547;49.044;1.156;2023-01-29T01:10:20;-0.90;99.90
47791;DHT22;33547;49.044;1.156;2023-01-29T01:13:06;-0.90;99.90
47791;DHT22;33547;49.044;1.156;2023-01-29T01:15:37;-0.90;99.90
47791;DHT22;33547;49.044;1.156;2023-01-29T01:18:03;-0.90;99.90
47791;DHT22;33547;49.044;1.156;2023-01-29T01:20:32;-1.00;99.90
47791;DHT22;33547;49.044;1.156;2023-01-29T01:22:58;-1.00;99.90
47791;DHT22;33547;49.044;1.156;2023-01-29T01:25:25;-1.00;99.90
47791;DHT22;33547;49.044;1.156;2023-01-29T01:27:55;-1.10;99.90
47791;DHT22;33547;49.044;1.156;2023-01-29T01:30:23;-1.00;99.90
47791;DHT22;33547;49.044;1.156;2023-01-29T01:32:49;-1.00;99.90
47791;DHT22;33547;49.044;1.156;2023-01-29T01:35:15;-1.00;99.90
47791;DHT22;33547;49.044;1.156;2023-01-29T01:37:41;-0.90;99.90
47791;DHT22;33547;49.044;1.156;2023-01-29T01:40:17;-0.80;99.90
47791;DHT22;33547;49.044;1.156;2023-01-29T01:42:46;-0.90;99.90
47791;DHT22;33547;49.044;1.156;2023-01-29T01:45:21;-0.80;99.90
47791;DHT22;33547;49.044;1.156;2023-01-29T01:48:11;-0.80;99.90
47791;DHT22;33547;49.044;1.156;2023-01-29T01:50:42;-0.70;99.90
47791;DHT22;33547;49.044;1.156;2023-01-29T01:53:12;-0.80;99.90
47791;DHT22;33547;49.044;1.156;2023-01-29T01:55:51;-0.80;99.90
47791;DHT22;33547;49.044;1.156;2023-01-29T01:58:25;-0.80;99.90
47791;DHT22;33547;49.044;1.156;2023-01-29T02:00:52;-0.80;99.90
47791;DHT22;33547;49.044;1.156;2023-01-29T02:03:20;-0.90;99.90
47791;DHT22;33547;49.044;1.156;2023-01-29T02:06:06;-0.80;99.90
47791;DHT22;33547;49.044;1.156;2023-01-29T02:08:57;-0.80;99.90
47791;DHT22;33547;49.044;1.156;2023-01-29T02:11:43;-0.80;99.90
47791;DHT22;33547;49.044;1.156;2023-01-29T02:14:10;-0.80;99.90
47791;DHT22;33547;49.044;1.156;2023-01-29T02:16:36;-0.90;99.90
47791;DHT22;33547;49.044;1.156;2023-01-29T02:19:04;-0.90;99.90
47791;DHT22;33547;49.044;1.156;2023-01-29T02:24:39;-1.00;99.90
47791;DHT22;33547;49.044;1.156;2023-01-29T02:27:19;-1.00;99.90
47791;DHT22;33547;49.044;1.156;2023-01-29T02:35:10;-1.00;99.90
47791;DHT22;33547;49.044;1.156;2023-01-29T02:40:44;-1.00;99.90
47791;DHT22;33547;49.044;1.156;2023-01-29T02:46:20;-1.10;99.90
47791;DHT22;33547;49.044;1.156;2023-01-29T02:49:30;-1.10;99.90
47791;DHT22;33547;49.044;1.156;2023-01-29T02:52:01;-1.10;99.90
47791;DHT22;33547;49.044;1.156;2023-01-29T02:57:07;-1.20;99.90
47791;DHT22;33547;49.044;1.156;2023-01-29T02:59:49;-1.10;99.90
47791;DHT22;33547;49.044;1.156;2023-01-29T03:02:26;-1.20;99.90
47791;DHT22;33547;49.044;1.156;2023-01-29T03:05:00;-1.30;99.90
47791;DHT22;33547;49.044;1.156;2023-01-29T03:07:39;-1.30;99.90
47791;DHT22;33547;49.044;1.156;2023-01-29T03:10:20;-1.30;99.90
47791;DHT22;33547;49.044;1.156;2023-01-29T03:13:14;-1.40;99.90
47791;DHT22;33547;49.044;1.156;2023-01-29T03:15:44;-1.40;99.90
47791;DHT22;33547;49.044;1.156;2023-01-29T03:18:14;-1.40;99.90
47791;DHT22;33547;49.044;1.156;2023-01-29T03:20:46;-1.40;99.90
47791;DHT22;33547;49.044;1.156;2023-01-29T03:23:27;-1.40;99.90
47791;DHT22;33547;49.044;1.156;2023-01-29T03:26:14;-1.40;99.90
47791;DHT22;33547;49.044;1.156;2023-01-29T03:29:02;-1.50;99.90
47791;DHT22;33547;49.044;1.156;2023-01-29T03:31:48;-1.60;99.90
47791;DHT22;33547;49.044;1.156;2023-01-29T03:34:40;-1.70;99.90
47791;DHT22;33547;49.044;1.156;2023-01-29T03:37:19;-1.60;99.90
47791;DHT22;33547;49.044;1.156;2023-01-29T03:39:45;-1.60;99.90
47791;DHT22;33547;49.044;1.156;2023-01-29T03:42:27;-1.70;99.90
47791;DHT22;33547;49.044;1.156;2023-01-29T03:53:29;-1.70;99.90
47791;DHT22;33547;49.044;1.156;2023-01-29T04:01:20;-1.90;99.90
47791;DHT22;33547;49.044;1.156;2023-01-29T04:04:02;-1.90;99.90
47791;DHT22;33547;49.044;1.156;2023-01-29T04:06:32;-1.90;99.90
47791;DHT22;33547;49.044;1.156;2023-01-29T04:09:03;-1.90;99.90
47791;DHT22;33547;49.044;1.156;2023-01-29T04:11:30;-1.90;99.90
47791;DHT22;33547;49.044;1.156;2023-01-29T04:13:58;-1.90;99.90
47791;DHT22;33547;49.044;1.156;2023-01-29T04:16:38;-1.80;99.90
47791;DHT22;33547;49.044;1.156;2023-01-29T04:19:05;-1.90;99.90
47791;DHT22;33547;49.044;1.156;2023-01-29T04:21:32;-1.90;99.90
47791;DHT22;33547;49.044;1.156;2023-01-29T04:23:59;-1.90;99.90
47791;DHT22;33547;49.044;1.156;2023-01-29T04:31:41;-2.00;99.90
47791;DHT22;33547;49.044;1.156;2023-01-29T04:34:24;-2.00;99.90
47791;DHT22;33547;49.044;1.156;2023-01-29T04:42:29;-1.80;99.90
47791;DHT22;33547;49.044;1.156;2023-01-29T04:55:48;-1.60;99.90
47791;DHT22;33547;49.044;1.156;2023-01-29T05:01:05;-1.50;99.90
47791;DHT22;33547;49.044;1.156;2023-01-29T05:03:32;-1.50;99.90
47791;DHT22;33547;49.044;1.156;2023-01-29T05:05:59;-1.40;99.90
47791;DHT22;33547;49.044;1.156;2023-01-29T05:08:28;-1.50;99.90
47791;DHT22;33547;49.044;1.156;2023-01-29T05:10:56;-1.60;99.90
47791;DHT22;33547;49.044;1.156;2023-01-29T05:13:24;-1.50;99.90
47791;DHT22;33547;49.044;1.156;2023-01-29T05:18:54;-1.30;99.90
47791;DHT22;33547;49.044;1.156;2023-01-29T05:21:20;-1.40;99.90
47791;DHT22;33547;49.044;1.156;2023-01-29T05:24:22;-1.30;99.90
47791;DHT22;33547;49.044;1.156;2023-01-29T05:26:49;-1.30;99.90
47791;DHT22;33547;49.044;1.156;2023-01-29T05:29:34;-1.30;99.90
47791;DHT22;33547;49.044;1.156;2023-01-29T05:31:59;-1.30;99.90
47791;DHT22;33547;49.044;1.156;2023-01-29T05:34:25;-1.30;99.90
47791;DHT22;33547;49.044;1.156;2023-01-29T05:36:51;-1.20;99.90
47791;DHT22;33547;49.044;1.156;2023-01-29T05:39:17;-1.20;99.90
47791;DHT22;33547;49.044;1.156;2023-01-29T05:41:43;-1.20;99.90
47791;DHT22;33547;49.044;1.156;2023-01-29T05:44:09;-1.20;99.90
47791;DHT22;33547;49.044;1.156;2023-01-29T05:46:35;-1.20;99.90
47791;DHT22;33547;49.044;1.156;2023-01-29T05:49:02;-1.10;99.90
47791;DHT22;33547;49.044;1.156;2023-01-29T05:51:27;-1.00;99.90
47791;DHT22;33547;49.044;1.156;2023-01-29T05:53:53;-1.00;99.90
47791;DHT22;33547;49.044;1.156;2023-01-29T05:56:19;-0.90;99.90
47791;DHT22;33547;49.044;1.156;2023-01-29T05:58:44;-0.90;99.90
47791;DHT22;33547;49.044;1.156;2023-01-29T06:01:15;-0.90;99.90
47791;DHT22;33547;49.044;1.156;2023-01-29T06:03:41;-0.80;99.90
47791;DHT22;33547;49.044;1.156;2023-01-29T06:06:07;-0.70;99.90
47791;DHT22;33547;49.044;1.156;2023-01-29T06:08:33;-0.70;99.90
47791;DHT22;33547;49.044;1.156;2023-01-29T06:10:59;-0.70;99.90
47791;DHT22;33547;49.044;1.156;2023-01-29T06:13:25;-0.80;99.90
47791;DHT22;33547;49.044;1.156;2023-01-29T06:15:51;-0.70;99.90
47791;DHT22;33547;49.044;1.156;2023-01-29T06:18:16;-0.70;99.90
47791;DHT22;33547;49.044;1.156;2023-01-29T06:20:42;-0.60;99.90
47791;DHT22;33547;49.044;1.156;2023-01-29T06:23:08;-0.50;99.90
47791;DHT22;33547;49.044;1.156;2023-01-29T06:25:33;-0.60;99.90
47791;DHT22;33547;49.044;1.156;2023-01-29T06:27:59;-0.40;99.90
47791;DHT22;33547;49.044;1.156;2023-01-29T06:30:25;-0.40;99.90
47791;DHT22;33547;49.044;1.156;2023-01-29T06:32:55;-0.30;99.90
47791;DHT22;33547;49.044;1.156;2023-01-29T06:35:20;-0.30;99.90
47791;DHT22;33547;49.044;1.156;2023-01-29T06:37:46;-0.10;99.90
47791;DHT22;33547;49.044;1.156;2023-01-29T06:40:12;-0.20;99.90
47791;DHT22;33547;49.044;1.156;2023-01-29T06:42:37;-0.10;99.90
47791;DHT22;33547;49.044;1.156;2023-01-29T06:45:03;-0.20;99.90
47791;DHT22;33547;49.044;1.156;2023-01-29T06:47:29;0.00;99.90
47791;DHT22;33547;49.044;1.156;2023-01-29T06:49:55;-0.10;99.90
47791;DHT22;33547;49.044;1.156;2023-01-29T06:52:21;0.00;99.90
47791;DHT22;33547;49.044;1.156;2023-01-29T06:54:46;0.00;99.90
47791;DHT22;33547;49.044;1.156;2023-01-29T06:57:12;0.00;99.90
47791;DHT22;33547;49.044;1.156;2023-01-29T06:59:38;0.10;99.90
47791;DHT22;33547;49.044;1.156;2023-01-29T07:02:03;0.10;99.90
47791;DHT22;33547;49.044;1.156;2023-01-29T07:04:29;0.00;99.90
47791;DHT22;33547;49.044;1.156;2023-01-29T07:06:55;0.10;99.90
47791;DHT22;33547;49.044;1.156;2023-01-29T07:09:21;0.10;99.90
47791;DHT22;33547;49.044;1.156;2023-01-29T07:11:46;0.10;99.90
47791;DHT22;33547;49.044;1.156;2023-01-29T07:14:12;0.10;99.90
47791;DHT22;33547;49.044;1.156;2023-01-29T07:16:38;0.10;99.90
47791;DHT22;33547;49.044;1.156;2023-01-29T07:19:03;0.00;99.90
47791;DHT22;33547;49.044;1.156;2023-01-29T07:21:29;0.00;99.90
47791;DHT22;33547;49.044;1.156;2023-01-29T07:23:55;0.10;99.90
47791;DHT22;33547;49.044;1.156;2023-01-29T07:26:20;0.20;99.90
47791;DHT22;33547;49.044;1.156;2023-01-29T07:28:46;0.20;99.90
47791;DHT22;33547;49.044;1.156;2023-01-29T07:31:13;0.10;99.90
47791;DHT22;33547;49.044;1.156;2023-01-29T07:33:41;0.10;99.90
47791;DHT22;33547;49.044;1.156;2023-01-29T07:36:08;0.20;99.90
47791;DHT22;33547;49.044;1.156;2023-01-29T07:38:34;0.20;99.90
47791;DHT22;33547;49.044;1.156;2023-01-29T07:40:59;0.20;99.90
47791;DHT22;33547;49.044;1.156;2023-01-29T07:43:25;0.30;99.90
47791;DHT22;33547;49.044;1.156;2023-01-29T07:45:51;0.30;99.90
47791;DHT22;33547;49.044;1.156;2023-01-29T07:48:17;0.30;99.90
47791;DHT22;33547;49.044;1.156;2023-01-29T07:50:42;0.40;99.90
47791;DHT22;33547;49.044;1.156;2023-01-29T07:53:14;0.40;99.90
47791;DHT22;33547;49.044;1.156;2023-01-29T07:55:42;0.50;99.90
47791;DHT22;33547;49.044;1.156;2023-01-29T07:58:08;0.40;99.90
47791;DHT22;33547;49.044;1.156;2023-01-29T08:00:34;0.50;99.90
47791;DHT22;33547;49.044;1.156;2023-01-29T08:03:08;0.70;99.90
47791;DHT22;33547;49.044;1.156;2023-01-29T08:05:35;0.70;99.90
47791;DHT22;33547;49.044;1.156;2023-01-29T08:08:01;0.60;99.90
47791;DHT22;33547;49.044;1.156;2023-01-29T08:10:27;0.70;99.90
47791;DHT22;33547;49.044;1.156;2023-01-29T08:12:57;0.60;99.90
47791;DHT22;33547;49.044;1.156;2023-01-29T08:15:24;0.80;99.90
47791;DHT22;33547;49.044;1.156;2023-01-29T08:17:50;0.90;99.90
47791;DHT22;33547;49.044;1.156;2023-01-29T08:20:16;0.90;99.90
47791;DHT22;33547;49.044;1.156;2023-01-29T08:22:42;0.80;99.90
47791;DHT22;33547;49.044;1.156;2023-01-29T08:25:08;0.90;99.90
47791;DHT22;33547;49.044;1.156;2023-01-29T08:27:34;0.90;99.90
47791;DHT22;33547;49.044;1.156;2023-01-29T08:29:59;0.90;99.90
47791;DHT22;33547;49.044;1.156;2023-01-29T08:32:25;1.00;99.90
47791;DHT22;33547;49.044;1.156;2023-01-29T08:34:51;1.00;99.90
47791;DHT22;33547;49.044;1.156;2023-01-29T08:37:17;1.00;99.90
47791;DHT22;33547;49.044;1.156;2023-01-29T08:39:42;1.30;99.90
47791;DHT22;33547;49.044;1.156;2023-01-29T08:42:08;1.20;99.90
47791;DHT22;33547;49.044;1.156;2023-01-29T08:44:33;1.20;99.90
47791;DHT22;33547;49.044;1.156;2023-01-29T08:46:59;1.30;99.90
47791;DHT22;33547;49.044;1.156;2023-01-29T08:49:25;1.30;99.90
47791;DHT22;33547;49.044;1.156;2023-01-29T08:51:51;1.30;99.90
47791;DHT22;33547;49.044;1.156;2023-01-29T08:54:18;1.50;99.90
47791;DHT22;33547;49.044;1.156;2023-01-29T08:56:43;1.60;99.90
47791;DHT22;33547;49.044;1.156;2023-01-29T08:59:09;1.50;99.90
47791;DHT22;33547;49.044;1.156;2023-01-29T09:01:35;1.60;99.90
47791;DHT22;33547;49.044;1.156;2023-01-29T09:04:01;1.70;99.90
47791;DHT22;33547;49.044;1.156;2023-01-29T09:06:27;1.70;99.90
47791;DHT22;33547;49.044;1.156;2023-01-29T09:08:53;1.70;99.90
47791;DHT22;33547;49.044;1.156;2023-01-29T09:11:18;1.80;99.90
47791;DHT22;33547;49.044;1.156;2023-01-29T09:13:44;1.80;99.90
47791;DHT22;33547;49.044;1.156;2023-01-29T09:16:10;1.90;99.90
47791;DHT22;33547;49.044;1.156;2023-01-29T09:18:35;2.10;99.90
47791;DHT22;33547;49.044;1.156;2023-01-29T09:21:01;2.10;99.90
47791;DHT22;33547;49.044;1.156;2023-01-29T09:23:28;2.30;99.90
47791;DHT22;33547;49.044;1.156;2023-01-29T09:25:55;2.40;99.90
47791;DHT22;33547;49.044;1.156;2023-01-29T09:28:21;2.50;99.90
47791;DHT22;33547;49.044;1.156;2023-01-29T09:30:46;2.70;99.90
47791;DHT22;33547;49.044;1.156;2023-01-29T09:33:12;2.60;99.90
47791;DHT22;33547;49.044;1.156;2023-01-29T09:35:41;2.70;99.90
47791;DHT22;33547;49.044;1.156;2023-01-29T09:38:08;2.70;99.90
47791;DHT22;33547;49.044;1.156;2023-01-29T09:43:50;3.00;99.90
47791;DHT22;33547;49.044;1.156;2023-01-29T09:46:39;3.10;99.90
47791;DHT22;33547;49.044;1.156;2023-01-29T09:49:25;3.20;99.90
47791;DHT22;33547;49.044;1.156;2023-01-29T09:52:00;3.30;99.90
47791;DHT22;33547;49.044;1.156;2023-01-29T09:57:18;3.40;99.90
47791;DHT22;33547;49.044;1.156;2023-01-29T09:59:46;3.40;99.90
47791;DHT22;33547;49.044;1.156;2023-01-29T10:12:54;3.70;99.90
47791;DHT22;33547;49.044;1.156;2023-01-29T10:26:30;4.20;99.90
47791;DHT22;33547;49.044;1.156;2023-01-29T10:29:00;4.10;99.90
47791;DHT22;33547;49.044;1.156;2023-01-29T10:31:31;4.20;99.90
47791;DHT22;33547;49.044;1.156;2023-01-29T10:34:05;4.40;99.90
47791;DHT22;33547;49.044;1.156;2023-01-29T10:36:44;4.50;99.90
47791;DHT22;33547;49.044;1.156;2023-01-29T10:39:14;4.70;99.90
47791;DHT22;33547;49.044;1.156;2023-01-29T10:55:49;4.90;99.90
47791;DHT22;33547;49.044;1.156;2023-01-29T10:58:35;5.00;99.90
47791;DHT22;33547;49.044;1.156;2023-01-29T11:01:02;5.00;99.90
47791;DHT22;33547;49.044;1.156;2023-01-29T11:03:30;5.20;99.90
47791;DHT22;33547;49.044;1.156;2023-01-29T11:08:28;5.30;99.90
47791;DHT22;33547;49.044;1.156;2023-01-29T11:11:15;5.30;99.90
47791;DHT22;33547;49.044;1.156;2023-01-29T11:16:13;5.20;99.90
47791;DHT22;33547;49.044;1.156;2023-01-29T11:18:52;5.30;99.90
47791;DHT22;33547;49.044;1.156;2023-01-29T11:21:19;5.20;99.90
47791;DHT22;33547;49.044;1.156;2023-01-29T11:23:45;5.20;99.90
47791;DHT22;33547;49.044;1.156;2023-01-29T11:26:12;5.20;99.90
47791;DHT22;33547;49.044;1.156;2023-01-29T11:28:46;5.30;99.90
47791;DHT22;33547;49.044;1.156;2023-01-29T11:31:34;5.30;99.90
47791;DHT22;33547;49.044;1.156;2023-01-29T11:34:11;5.30;99.90
47791;DHT22;33547;49.044;1.156;2023-01-29T11:36:38;5.30;99.90
47791;DHT22;33547;49.044;1.156;2023-01-29T11:41:46;5.30;99.90
47791;DHT22;33547;49.044;1.156;2023-01-29T11:44:41;5.30;99.90
47791;DHT22;33547;49.044;1.156;2023-01-29T11:47:16;5.30;99.90
47791;DHT22;33547;49.044;1.156;2023-01-29T11:49:50;5.30;99.90
47791;DHT22;33547;49.044;1.156;2023-01-29T11:52:21;5.30;99.90
47791;DHT22;33547;49.044;1.156;2023-01-29T11:59:52;5.20;99.90
47791;DHT22;33547;49.044;1.156;2023-01-29T12:02:22;5.30;99.90
47791;DHT22;33547;49.044;1.156;2023-01-29T12:04:52;5.40;99.90
47791;DHT22;33547;49.044;1.156;2023-01-29T12:07:19;5.30;99.90
47791;DHT22;33547;49.044;1.156;2023-01-29T12:09:52;5.40;99.90
47791;DHT22;33547;49.044;1.156;2023-01-29T12:15:17;5.30;99.90
47791;DHT22;33547;49.044;1.156;2023-01-29T12:17:55;5.30;99.90
47791;DHT22;33547;49.044;1.156;2023-01-29T12:20:28;5.30;99.90
47791;DHT22;33547;49.044;1.156;2023-01-29T12:25:43;5.40;99.90
47791;DHT22;33547;49.044;1.156;2023-01-29T12:29:20;5.30;99.90
47791;DHT22;33547;49.044;1.156;2023-01-29T12:31:20;5.50;99.90
47791;DHT22;33547;49.044;1.156;2023-01-29T12:34:00;5.50;99.90
47791;DHT22;33547;49.044;1.156;2023-01-29T12:36:52;5.50;99.90
47791;DHT22;33547;49.044;1.156;2023-01-29T12:39:20;5.60;99.90
47791;DHT22;33547;49.044;1.156;2023-01-29T12:41:56;5.60;99.90
47791;DHT22;33547;49.044;1.156;2023-01-29T12:44:36;5.60;99.90
47791;DHT22;33547;49.044;1.156;2023-01-29T12:47:22;5.70;99.90
47791;DHT22;33547;49.044;1.156;2023-01-29T12:49:54;5.70;99.90
47791;DHT22;33547;49.044;1.156;2023-01-29T12:55:35;5.60;99.90
47791;DHT22;33547;49.044;1.156;2023-01-29T13:00:50;5.60;99.90
47791;DHT22;33547;49.044;1.156;2023-01-29T13:03:33;5.60;99.90
47791;DHT22;33547;49.044;1.156;2023-01-29T13:06:09;5.60;99.90
47791;DHT22;33547;49.044;1.156;2023-01-29T13:08:50;5.50;99.90
47791;DHT22;33547;49.044;1.156;2023-01-29T13:11:25;5.60;99.90
47791;DHT22;33547;49.044;1.156;2023-01-29T13:14:21;5.70;99.90
47791;DHT22;33547;49.044;1.156;2023-01-29T13:16:51;5.80;99.90
47791;DHT22;33547;49.044;1.156;2023-01-29T13:19:27;5.80;99.90
47791;DHT22;33547;49.044;1.156;2023-01-29T13:21:54;5.80;99.90
47791;DHT22;33547;49.044;1.156;2023-01-29T13:24:23;5.60;99.90
47791;DHT22;33547;49.044;1.156;2023-01-29T13:26:49;5.70;99.90
47791;DHT22;33547;49.044;1.156;2023-01-29T13:29:29;5.60;99.90
47791;DHT22;33547;49.044;1.156;2023-01-29T13:32:00;5.70;99.90
47791;DHT22;33547;49.044;1.156;2023-01-29T13:34:36;5.70;99.90
47791;DHT22;33547;49.044;1.156;2023-01-29T13:37:15;5.70;99.90
47791;DHT22;33547;49.044;1.156;2023-01-29T13:39:52;5.80;99.90
47791;DHT22;33547;49.044;1.156;2023-01-29T13:42:44;5.70;99.90
47791;DHT22;33547;49.044;1.156;2023-01-29T13:45:27;5.70;99.90
47791;DHT22;33547;49.044;1.156;2023-01-29T13:48:11;5.80;99.90
47791;DHT22;33547;49.044;1.156;2023-01-29T13:50:42;5.90;99.90
47791;DHT22;33547;49.044;1.156;2023-01-29T13:53:23;5.80;99.90
47791;DHT22;33547;49.044;1.156;2023-01-29T13:55:49;5.70;99.90
47791;DHT22;33547;49.044;1.156;2023-01-29T13:58:50;5.70;99.90
47791;DHT22;33547;49.044;1.156;2023-01-29T14:01:02;5.70;99.90
47791;DHT22;33547;49.044;1.156;2023-01-29T14:08:38;5.70;99.90
47791;DHT22;33547;49.044;1.156;2023-01-29T14:11:33;5.70;99.90
47791;DHT22;33547;49.044;1.156;2023-01-29T14:14:00;5.70;99.90
47791;DHT22;33547;49.044;1.156;2023-01-29T14:16:31;5.60;99.90
47791;DHT22;33547;49.044;1.156;2023-01-29T14:19:01;5.70;99.90
47791;DHT22;33547;49.044;1.156;2023-01-29T14:21:31;5.70;99.90
47791;DHT22;33547;49.044;1.156;2023-01-29T14:24:17;5.70;99.90
47791;DHT22;33547;49.044;1.156;2023-01-29T14:26:46;5.80;99.90
47791;DHT22;33547;49.044;1.156;2023-01-29T14:31:48;5.60;99.90
47791;DHT22;33547;49.044;1.156;2023-01-29T14:34:27;5.60;99.90
47791;DHT22;33547;49.044;1.156;2023-01-29T14:37:01;5.60;99.90
47791;DHT22;33547;49.044;1.156;2023-01-29T14:39:37;5.70;99.90
47791;DHT22;33547;49.044;1.156;2023-01-29T14:42:17;5.60;99.90
47791;DHT22;33547;49.044;1.156;2023-01-29T14:58:27;5.50;99.90
47791;DHT22;33547;49.044;1.156;2023-01-29T15:00:56;5.60;99.90
47791;DHT22;33547;49.044;1.156;2023-01-29T15:03:50;5.70;99.90
47791;DHT22;33547;49.044;1.156;2023-01-29T15:06:42;5.70;99.90
47791;DHT22;33547;49.044;1.156;2023-01-29T15:09:38;5.70;99.90
47791;DHT22;33547;49.044;1.156;2023-01-29T15:14:35;5.60;99.90
47791;DHT22;33547;49.044;1.156;2023-01-29T15:17:35;5.60;99.90
47791;DHT22;33547;49.044;1.156;2023-01-29T15:20:26;5.60;99.90
47791;DHT22;33547;49.044;1.156;2023-01-29T15:22:52;5.60;99.90
47791;DHT22;33547;49.044;1.156;2023-01-29T15:25:18;5.60;99.90
47791;DHT22;33547;49.044;1.156;2023-01-29T15:27:46;5.50;99.90
47791;DHT22;33547;49.044;1.156;2023-01-29T15:30:19;5.50;99.90
47791;DHT22;33547;49.044;1.156;2023-01-29T15:32:47;5.60;99.90
47791;DHT22;33547;49.044;1.156;2023-01-29T15:38:19;5.60;99.90
47791;DHT22;33547;49.044;1.156;2023-01-29T15:40:59;5.50;99.90
47791;DHT22;33547;49.044;1.156;2023-01-29T15:43:30;5.40;99.90
47791;DHT22;33547;49.044;1.156;2023-01-29T15:46:00;5.40;99.90
47791;DHT22;33547;49.044;1.156;2023-01-29T15:48:46;5.40;99.90
47791;DHT22;33547;49.044;1.156;2023-01-29T15:51:24;5.30;99.90
47791;DHT22;33547;49.044;1.156;2023-01-29T15:53:59;5.40;99.90
47791;DHT22;33547;49.044;1.156;2023-01-29T15:56:30;5.50;99.90
47791;DHT22;33547;49.044;1.156;2023-01-29T15:58:59;5.40;99.90
47791;DHT22;33547;49.044;1.156;2023-01-29T16:01:26;5.30;99.90
47791;DHT22;33547;49.044;1.156;2023-01-29T16:03:53;5.30;99.90
47791;DHT22;33547;49.044;1.156;2023-01-29T16:06:19;5.30;99.90
47791;DHT22;33547;49.044;1.156;2023-01-29T16:08:49;5.20;99.90
47791;DHT22;33547;49.044;1.156;2023-01-29T16:11:17;5.20;99.90
47791;DHT22;33547;49.044;1.156;2023-01-29T16:13:45;5.20;99.90
47791;DHT22;33547;49.044;1.156;2023-01-29T16:16:18;5.20;99.90
47791;DHT22;33547;49.044;1.156;2023-01-29T16:18:46;5.20;99.90
47791;DHT22;33547;49.044;1.156;2023-01-29T16:23:43;5.10;99.90
47791;DHT22;33547;49.044;1.156;2023-01-29T16:26:15;5.00;99.90
47791;DHT22;33547;49.044;1.156;2023-01-29T16:28:42;5.00;99.90
47791;DHT22;33547;49.044;1.156;2023-01-29T16:31:09;5.00;99.90
47791;DHT22;33547;49.044;1.156;2023-01-29T16:33:37;5.00;99.90
47791;DHT22;33547;49.044;1.156;2023-01-29T16:36:16;5.00;99.90
47791;DHT22;33547;49.044;1.156;2023-01-29T16:38:46;4.80;99.90
47791;DHT22;33547;49.044;1.156;2023-01-29T16:43:44;4.80;99.90
47791;DHT22;33547;49.044;1.156;2023-01-29T16:46:18;4.80;99.90
47791;DHT22;33547;49.044;1.156;2023-01-29T16:48:45;4.70;99.90
47791;DHT22;33547;49.044;1.156;2023-01-29T16:56:34;4.80;99.90
47791;DHT22;33547;49.044;1.156;2023-01-29T16:59:02;4.80;99.90
47791;DHT22;33547;49.044;1.156;2023-01-29T17:01:29;4.80;99.90
47791;DHT22;33547;49.044;1.156;2023-01-29T17:04:08;4.80;99.90
47791;DHT22;33547;49.044;1.156;2023-01-29T17:06:36;4.90;99.90
47791;DHT22;33547;49.044;1.156;2023-01-29T17:09:03;4.90;99.90
47791;DHT22;33547;49.044;1.156;2023-01-29T17:11:38;4.80;99.90
47791;DHT22;33547;49.044;1.156;2023-01-29T17:14:06;4.90;99.90
47791;DHT22;33547;49.044;1.156;2023-01-29T17:16:34;4.90;99.90
47791;DHT22;33547;49.044;1.156;2023-01-29T17:19:00;4.90;99.90
47791;DHT22;33547;49.044;1.156;2023-01-29T17:21:28;4.90;99.90
47791;DHT22;33547;49.044;1.156;2023-01-29T17:23:54;5.00;99.90
47791;DHT22;33547;49.044;1.156;2023-01-29T17:26:20;5.00;99.90
47791;DHT22;33547;49.044;1.156;2023-01-29T17:28:50;4.90;99.90
47791;DHT22;33547;49.044;1.156;2023-01-29T17:31:16;5.00;99.90
47791;DHT22;33547;49.044;1.156;2023-01-29T17:33:42;5.00;99.90
47791;DHT22;33547;49.044;1.156;2023-01-29T17:36:13;5.00;99.90
47791;DHT22;33547;49.044;1.156;2023-01-29T17:38:39;4.90;99.90
47791;DHT22;33547;49.044;1.156;2023-01-29T17:41:18;4.90;99.90
47791;DHT22;33547;49.044;1.156;2023-01-29T17:43:45;4.90;99.90
47791;DHT22;33547;49.044;1.156;2023-01-29T17:46:13;4.80;99.90
47791;DHT22;33547;49.044;1.156;2023-01-29T17:48:39;4.70;99.90
47791;DHT22;33547;49.044;1.156;2023-01-29T17:51:08;4.80;99.90
47791;DHT22;33547;49.044;1.156;2023-01-29T17:53:35;4.80;99.90
47791;DHT22;33547;49.044;1.156;2023-01-29T17:56:00;4.80;99.90
47791;DHT22;33547;49.044;1.156;2023-01-29T17:58:26;4.70;99.90
47791;DHT22;33547;49.044;1.156;2023-01-29T18:00:53;4.70;99.90
47791;DHT22;33547;49.044;1.156;2023-01-29T18:03:19;4.70;99.90
47791;DHT22;33547;49.044;1.156;2023-01-29T18:05:48;4.70;99.90
47791;DHT22;33547;49.044;1.156;2023-01-29T18:08:25;4.70;99.90
47791;DHT22;33547;49.044;1.156;2023-01-29T18:10:52;4.60;99.90
47791;DHT22;33547;49.044;1.156;2023-01-29T18:13:18;4.60;99.90
47791;DHT22;33547;49.044;1.156;2023-01-29T18:15:44;4.60;99.90
47791;DHT22;33547;49.044;1.156;2023-01-29T18:18:13;4.60;99.90
47791;DHT22;33547;49.044;1.156;2023-01-29T18:20:39;4.70;99.90
47791;DHT22;33547;49.044;1.156;2023-01-29T18:23:06;4.60;99.90
47791;DHT22;33547;49.044;1.156;2023-01-29T18:25:32;4.70;99.90
47791;DHT22;33547;49.044;1.156;2023-01-29T18:27:58;4.60;99.90
47791;DHT22;33547;49.044;1.156;2023-01-29T18:30:24;4.60;99.90
47791;DHT22;33547;49.044;1.156;2023-01-29T18:32:49;4.50;99.90
47791;DHT22;33547;49.044;1.156;2023-01-29T18:35:16;4.60;99.90
47791;DHT22;33547;49.044;1.156;2023-01-29T18:37:45;4.50;99.90
47791;DHT22;33547;49.044;1.156;2023-01-29T18:40:11;4.50;99.90
47791;DHT22;33547;49.044;1.156;2023-01-29T18:42:39;4.50;99.90
47791;DHT22;33547;49.044;1.156;2023-01-29T18:45:06;4.50;99.90